الصفحة الرئيسية
METAR-TAF:

METAR-TAF

مطار :

Majuro, جزر مارشال

دائرة عرض: 07-04N, خط طول: 171-17E, ارتفاع: 2 متر

METAR: مفقودة

زمن: 15:58 (03:58 UTC)

توقعات

تاريخ ووقت الإصدار 4ساعات و 31 دقيقة قبل الساعة 23:27UTC
التوقعات صالحة من27 الساعة 00 UTC إلى 27 الساعة 24 UTC
ريح 10 عقدة من الشرق
الرؤية: 10 كم
غيوم مفككة على ارتفاع 3500 قدم
ملبد بالغيوم على ارتفاع 13000 قدم
زخات في الجوار
مؤقت
من 27 الساعة 00 UTC إلى 27 الساعة 04 UTC
ريح 12 عقدة من الشرق/الشمال الشرقي
الرؤية: 6.4 كم
غيوم مفككة على ارتفاع 2000 قدم
زخات من الأمطار الخفيفة

TAF: PKMJ 262327Z 2700/2724 08010KT P6SM VCSH BKN035 OVC130 TEMPO 2700/2704 06012KT 4SM -SHRA BKN020

أرصاد الطقس والتوقعات من أكثر من 4000 مطار (تقارير الطقس للمطار METAR والتنبؤ بالطقس بالمطارTAF).

المحطات المتاحة هي النقط الصفراء والحمراء على الخريطة.

حرك المؤشر فوق النقطة لمعرفة اسم المحطة.

ثم انقر لمعرفة أرصاد وتوقعات الطقس.

لتغيير الخارطة: اضغط على الأزرار الخضراء مع رمز الصليب الأسود للتكبير. على الزر الأخضر مع شرطة للتصغير، أو على الأسهم الخضراء للخرائط المجاورة.


METAR-TAF: